createdAt,value
2023-03-12T00:01:22.383Z,100.00
2023-03-12T00:03:51.594Z,100.00
2023-03-12T00:06:20.790Z,100.00
2023-03-12T00:08:49.609Z,100.00
2023-03-12T00:11:21.463Z,100.00
2023-03-12T00:13:51.258Z,100.00
2023-03-12T00:16:23.035Z,100.00
2023-03-12T00:18:53.924Z,100.00
2023-03-12T00:21:22.739Z,100.00
2023-03-12T00:23:51.663Z,100.00
2023-03-12T00:26:21.380Z,100.00
2023-03-12T00:28:50.665Z,100.00
2023-03-12T00:31:23.258Z,100.00
2023-03-12T00:33:51.670Z,100.00
2023-03-12T00:36:26.313Z,100.00
2023-03-12T00:38:55.969Z,100.00
2023-03-12T00:41:26.260Z,100.00
2023-03-12T00:43:54.973Z,100.00
2023-03-12T00:46:24.896Z,100.00
2023-03-12T00:48:53.504Z,100.00
2023-03-12T00:51:22.060Z,100.00
2023-03-12T00:53:50.560Z,100.00
2023-03-12T00:56:19.440Z,100.00
2023-03-12T00:58:47.878Z,100.00
2023-03-12T01:01:16.520Z,100.00
2023-03-12T01:03:49.123Z,100.00
2023-03-12T01:06:19.772Z,100.00
2023-03-12T01:08:48.753Z,100.00
2023-03-12T01:11:18.741Z,100.00
2023-03-12T01:13:47.645Z,100.00
2023-03-12T01:16:16.297Z,100.00
2023-03-12T01:18:44.887Z,100.00
2023-03-12T01:21:15.037Z,100.00
2023-03-12T01:23:43.773Z,100.00
2023-03-12T01:26:12.358Z,100.00
2023-03-12T01:28:41.096Z,100.00
2023-03-12T01:31:10.556Z,100.00
2023-03-12T01:33:39.172Z,100.00
2023-03-12T01:36:18.881Z,100.00
2023-03-12T01:38:48.041Z,100.00
2023-03-12T01:41:16.685Z,100.00
2023-03-12T01:43:45.275Z,100.00
2023-03-12T01:46:27.816Z,100.00
2023-03-12T01:49:00.832Z,100.00
2023-03-12T01:51:36.460Z,100.00
2023-03-12T01:54:09.548Z,100.00
2023-03-12T01:56:40.037Z,100.00
2023-03-12T01:59:15.206Z,100.00
2023-03-12T02:01:44.971Z,100.00
2023-03-12T02:04:15.917Z,100.00
2023-03-12T02:06:50.527Z,100.00
2023-03-12T02:09:21.632Z,100.00
2023-03-12T02:11:51.479Z,100.00
2023-03-12T02:14:21.717Z,100.00
2023-03-12T02:16:50.621Z,100.00
2023-03-12T02:19:27.103Z,100.00
2023-03-12T02:21:57.601Z,100.00
2023-03-12T02:24:34.080Z,100.00
2023-03-12T02:27:04.923Z,100.00
2023-03-12T02:29:35.938Z,100.00
2023-03-12T02:32:07.066Z,100.00
2023-03-12T02:34:36.069Z,100.00
2023-03-12T02:37:04.475Z,100.00
2023-03-12T02:39:32.951Z,100.00
2023-03-12T02:42:01.748Z,100.00
2023-03-12T02:44:33.466Z,100.00
2023-03-12T02:47:02.984Z,100.00
2023-03-12T02:49:33.637Z,100.00
2023-03-12T02:52:03.046Z,100.00
2023-03-12T02:54:32.056Z,100.00
2023-03-12T02:57:00.685Z,100.00
2023-03-12T02:59:33.253Z,100.00
2023-03-12T03:02:02.417Z,100.00
2023-03-12T03:04:32.258Z,100.00
2023-03-12T03:07:01.656Z,100.00
2023-03-12T03:09:30.473Z,100.00
2023-03-12T03:11:59.328Z,100.00
2023-03-12T03:14:29.672Z,100.00
2023-03-12T03:16:59.492Z,100.00
2023-03-12T03:19:28.477Z,100.00
2023-03-12T03:21:57.255Z,100.00
2023-03-12T03:24:25.662Z,100.00
2023-03-12T03:26:54.592Z,100.00
2023-03-12T03:29:23.296Z,100.00
2023-03-12T03:31:52.814Z,100.00
2023-03-12T03:34:22.701Z,100.00
2023-03-12T03:36:51.238Z,100.00
2023-03-12T03:39:20.380Z,100.00
2023-03-12T03:41:49.064Z,100.00
2023-03-12T03:44:19.824Z,100.00
2023-03-12T03:46:49.203Z,100.00
2023-03-12T03:49:17.900Z,100.00
2023-03-12T03:51:48.357Z,100.00
2023-03-12T03:54:21.996Z,100.00
2023-03-12T03:56:51.206Z,100.00
2023-03-12T03:59:19.743Z,100.00
2023-03-12T04:01:49.180Z,100.00
2023-03-12T04:04:17.626Z,100.00
2023-03-12T04:06:47.503Z,100.00
2023-03-12T04:09:16.707Z,100.00
2023-03-12T04:11:45.730Z,100.00
2023-03-12T04:14:15.641Z,100.00
2023-03-12T04:16:46.340Z,100.00
2023-03-12T04:19:14.927Z,100.00
2023-03-12T04:21:43.374Z,100.00
2023-03-12T04:24:17.120Z,100.00
2023-03-12T04:26:47.051Z,100.00
2023-03-12T04:29:17.084Z,100.00
2023-03-12T04:31:46.131Z,100.00
2023-03-12T04:34:15.432Z,100.00
2023-03-12T04:36:48.099Z,100.00
2023-03-12T04:39:20.965Z,100.00
2023-03-12T04:41:51.949Z,100.00
2023-03-12T04:44:21.165Z,100.00
2023-03-12T04:46:49.800Z,100.00
2023-03-12T04:49:21.848Z,100.00
2023-03-12T04:51:50.204Z,100.00
2023-03-12T04:54:22.635Z,100.00
2023-03-12T04:56:52.384Z,100.00
2023-03-12T04:59:24.553Z,100.00
2023-03-12T05:01:53.262Z,100.00
2023-03-12T05:04:26.658Z,100.00
2023-03-12T05:06:56.790Z,100.00
2023-03-12T05:09:26.758Z,100.00
2023-03-12T05:11:55.466Z,100.00
2023-03-12T05:14:25.373Z,100.00
2023-03-12T05:16:54.854Z,100.00
2023-03-12T05:19:23.833Z,100.00
2023-03-12T05:21:52.356Z,100.00
2023-03-12T05:24:22.131Z,100.00
2023-03-12T05:26:52.865Z,100.00
2023-03-12T05:29:24.872Z,100.00
2023-03-12T05:31:54.656Z,100.00
2023-03-12T05:34:23.914Z,100.00
2023-03-12T05:36:53.990Z,100.00
2023-03-12T05:39:25.908Z,100.00
2023-03-12T05:41:57.509Z,100.00
2023-03-12T05:44:27.843Z,100.00
2023-03-12T05:46:59.133Z,100.00
2023-03-12T05:49:28.815Z,100.00
2023-03-12T05:51:58.591Z,100.00
2023-03-12T05:54:32.196Z,100.00
2023-03-12T05:57:03.527Z,100.00
2023-03-12T05:59:32.004Z,100.00
2023-03-12T06:02:01.702Z,100.00
2023-03-12T06:04:31.897Z,100.00
2023-03-12T06:07:00.380Z,100.00
2023-03-12T06:09:28.909Z,100.00
2023-03-12T06:11:57.781Z,100.00
2023-03-12T06:14:28.538Z,100.00
2023-03-12T06:16:57.732Z,100.00
2023-03-12T06:19:26.292Z,100.00
2023-03-12T06:21:54.980Z,100.00
2023-03-12T06:24:23.850Z,100.00
2023-03-12T06:26:58.182Z,100.00
2023-03-12T06:29:28.193Z,100.00
2023-03-12T06:31:57.118Z,100.00
2023-03-12T06:34:25.827Z,100.00
2023-03-12T06:36:54.730Z,100.00
2023-03-12T06:39:23.270Z,100.00
2023-03-12T06:41:51.806Z,100.00
2023-03-12T06:44:20.362Z,100.00
2023-03-12T06:46:50.883Z,100.00
2023-03-12T06:49:19.365Z,100.00
2023-03-12T06:51:48.384Z,100.00
2023-03-12T06:54:16.944Z,100.00
2023-03-12T06:56:46.143Z,100.00
2023-03-12T06:59:14.887Z,100.00
2023-03-12T07:01:43.235Z,100.00
2023-03-12T07:04:13.392Z,100.00
2023-03-12T07:06:41.919Z,100.00
2023-03-12T07:09:10.761Z,100.00
2023-03-12T07:11:39.156Z,100.00
2023-03-12T07:14:07.700Z,100.00
2023-03-12T07:16:36.190Z,100.00
2023-03-12T07:19:04.991Z,100.00
2023-03-12T07:21:34.930Z,100.00
2023-03-12T07:24:06.991Z,100.00
2023-03-12T07:26:36.381Z,100.00
2023-03-12T07:29:06.025Z,100.00
2023-03-12T07:31:34.442Z,100.00
2023-03-12T07:34:06.562Z,100.00
2023-03-12T07:36:36.632Z,100.00
2023-03-12T07:39:05.700Z,100.00
2023-03-12T07:41:35.458Z,100.00
2023-03-12T07:44:04.923Z,100.00
2023-03-12T07:46:34.068Z,100.00
2023-03-12T07:49:02.888Z,100.00
2023-03-12T07:51:31.457Z,100.00
2023-03-12T07:54:01.442Z,100.00
2023-03-12T07:56:30.106Z,100.00
2023-03-12T07:58:58.774Z,100.00
2023-03-12T08:01:32.223Z,100.00
2023-03-12T08:04:01.443Z,100.00
2023-03-12T08:06:30.534Z,100.00
2023-03-12T08:09:00.895Z,100.00
2023-03-12T08:11:30.401Z,100.00
2023-03-12T08:13:58.951Z,100.00
2023-03-12T08:16:27.699Z,100.00
2023-03-12T08:18:56.183Z,100.00
2023-03-12T08:21:25.066Z,100.00
2023-03-12T08:23:53.601Z,100.00
2023-03-12T08:26:24.438Z,100.00
2023-03-12T08:28:53.134Z,100.00
2023-03-12T08:31:23.333Z,100.00
2023-03-12T08:33:52.675Z,100.00
2023-03-12T08:36:22.553Z,100.00
2023-03-12T08:38:51.600Z,100.00
2023-03-12T08:41:21.044Z,100.00
2023-03-12T08:43:51.367Z,100.00
2023-03-12T08:46:20.278Z,100.00
2023-03-12T08:48:49.198Z,100.00
2023-03-12T08:51:18.378Z,100.00
2023-03-12T08:53:47.604Z,100.00
2023-03-12T08:56:15.997Z,100.00
2023-03-12T08:58:44.614Z,100.00
2023-03-12T09:01:15.464Z,100.00
2023-03-12T09:03:43.855Z,100.00
2023-03-12T09:06:17.010Z,100.00
2023-03-12T09:08:46.982Z,100.00
2023-03-12T09:11:16.574Z,100.00
2023-03-12T09:14:11.598Z,100.00
2023-03-12T09:16:37.089Z,100.00
2023-03-12T09:19:06.455Z,100.00
2023-03-12T09:21:34.883Z,97.18
2023-03-12T09:24:03.709Z,94.06
2023-03-12T09:26:32.270Z,95.16
2023-03-12T09:29:00.856Z,92.78
2023-03-12T09:31:29.419Z,95.06
2023-03-12T09:33:59.547Z,92.68
2023-03-12T09:36:28.104Z,94.31
2023-03-12T09:38:56.937Z,90.95
2023-03-12T09:41:28.673Z,86.87
2023-03-12T09:44:01.472Z,78.07
2023-03-12T09:46:36.330Z,76.39
2023-03-12T09:49:12.876Z,80.77
2023-03-12T09:51:46.852Z,86.40
2023-03-12T09:54:25.995Z,84.16
2023-03-12T09:56:58.673Z,87.14
2023-03-12T09:59:27.458Z,92.69
2023-03-12T10:02:00.436Z,91.86
2023-03-12T10:04:58.520Z,90.34
2023-03-12T10:07:35.196Z,82.32
2023-03-12T10:10:18.222Z,85.83
2023-03-12T10:13:05.638Z,83.43
2023-03-12T10:15:46.622Z,87.52
2023-03-12T10:18:27.433Z,87.19
2023-03-12T10:21:09.077Z,83.59
2023-03-12T10:23:41.787Z,75.99
2023-03-12T10:26:16.253Z,83.58
2023-03-12T10:28:49.676Z,84.86
2023-03-12T10:31:24.060Z,79.70
2023-03-12T10:33:54.617Z,76.00
2023-03-12T10:36:29.704Z,77.23
2023-03-12T10:38:58.117Z,76.58
2023-03-12T10:41:32.695Z,79.24
2023-03-12T10:44:09.120Z,79.56
2023-03-12T10:47:05.051Z,72.10
2023-03-12T10:49:36.239Z,76.06
2023-03-12T10:52:15.763Z,73.55
2023-03-12T10:54:45.505Z,73.78
2023-03-12T10:57:16.587Z,67.56
2023-03-12T10:59:47.816Z,68.01
2023-03-12T11:02:43.030Z,55.37
2023-03-12T11:05:22.960Z,59.76
2023-03-12T11:07:53.227Z,67.32
2023-03-12T11:10:25.365Z,60.80
2023-03-12T11:13:03.040Z,53.89
2023-03-12T11:15:40.173Z,59.40
2023-03-12T11:18:33.951Z,53.54
2023-03-12T11:21:19.460Z,57.57
2023-03-12T11:24:09.481Z,63.00
2023-03-12T11:26:51.648Z,65.62
2023-03-12T11:29:27.367Z,71.43
2023-03-12T11:32:04.931Z,70.31
2023-03-12T11:34:36.382Z,74.52
2023-03-12T11:37:14.899Z,68.93
2023-03-12T11:40:06.849Z,61.43
2023-03-12T11:42:51.928Z,65.87
2023-03-12T11:45:29.289Z,64.49
2023-03-12T11:48:11.983Z,69.40
2023-03-12T11:51:02.652Z,65.04
2023-03-12T11:53:51.015Z,65.47
2023-03-12T11:56:28.288Z,71.75
2023-03-12T11:59:14.102Z,69.69
2023-03-12T12:01:55.378Z,63.05
2023-03-12T12:04:45.236Z,58.38
2023-03-12T12:07:25.100Z,61.94
2023-03-12T12:10:04.379Z,65.63
2023-03-12T12:12:49.256Z,66.99
2023-03-12T12:15:28.865Z,68.29
2023-03-12T12:18:06.950Z,74.57
2023-03-12T12:20:47.525Z,73.85
2023-03-12T12:23:19.634Z,74.49
2023-03-12T12:26:14.330Z,68.56
2023-03-12T12:29:15.186Z,67.72
2023-03-12T12:31:51.855Z,73.48
2023-03-12T12:34:36.913Z,72.89
2023-03-12T12:37:22.112Z,63.91
2023-03-12T12:39:59.797Z,70.56
2023-03-12T12:42:34.895Z,68.09
2023-03-12T12:45:05.723Z,70.60
2023-03-12T12:47:41.921Z,66.82
2023-03-12T12:50:18.719Z,68.76
2023-03-12T12:52:54.354Z,71.47
2023-03-12T12:55:31.161Z,62.83
2023-03-12T12:58:03.553Z,67.65
2023-03-12T13:00:43.034Z,64.97
2023-03-12T13:03:18.345Z,68.50
2023-03-12T13:05:54.658Z,66.55
2023-03-12T13:09:00.587Z,56.98
2023-03-12T13:11:39.722Z,61.44
2023-03-12T13:14:39.927Z,51.73
2023-03-12T13:17:39.713Z,56.70
2023-03-12T13:20:21.723Z,50.04
2023-03-12T13:23:06.218Z,54.47
2023-03-12T13:25:57.018Z,49.57
2023-03-12T13:29:11.413Z,53.76
2023-03-12T13:31:43.158Z,59.46
2023-03-12T13:34:46.274Z,51.46
2023-03-12T13:37:58.069Z,57.28
2023-03-12T13:40:55.162Z,59.72
2023-03-12T13:43:56.615Z,51.78
2023-03-12T13:46:44.836Z,56.52
2023-03-12T13:49:21.305Z,55.00
2023-03-12T13:52:20.326Z,53.81
2023-03-12T13:54:52.068Z,60.21
2023-03-12T13:57:32.427Z,53.06
2023-03-12T14:00:01.496Z,57.36
2023-03-12T14:02:39.736Z,61.10
2023-03-12T14:05:11.629Z,65.41
2023-03-12T14:08:04.153Z,57.12
2023-03-12T14:10:44.134Z,66.98
2023-03-12T14:13:36.913Z,61.49
2023-03-12T14:16:13.044Z,64.29
2023-03-12T14:18:46.013Z,58.10
2023-03-12T14:21:17.581Z,62.98
2023-03-12T14:23:51.133Z,63.60
2023-03-12T14:26:24.980Z,61.72
2023-03-12T14:29:01.866Z,61.60
2023-03-12T14:31:31.998Z,60.81
2023-03-12T14:34:06.809Z,58.83
2023-03-12T14:36:41.967Z,56.70
2023-03-12T14:39:21.411Z,55.61
2023-03-12T14:41:57.309Z,50.82
2023-03-12T14:44:31.018Z,55.35
2023-03-12T14:47:02.053Z,60.11
2023-03-12T14:49:32.330Z,62.86
2023-03-12T14:52:01.710Z,66.98
2023-03-12T14:54:30.956Z,65.29
2023-03-12T14:56:59.836Z,68.60
2023-03-12T14:59:32.338Z,71.06
2023-03-12T15:02:03.636Z,70.42
2023-03-12T15:04:36.752Z,71.28
2023-03-12T15:07:07.014Z,72.82
2023-03-12T15:09:37.781Z,73.45
2023-03-12T15:12:09.485Z,73.48
2023-03-12T15:14:43.186Z,73.84
2023-03-12T15:17:17.783Z,71.92
2023-03-12T15:19:47.568Z,73.48
2023-03-12T15:22:19.449Z,73.65
2023-03-12T15:24:47.854Z,65.69
2023-03-12T15:27:22.041Z,73.16
2023-03-12T15:29:53.156Z,73.58
2023-03-12T15:32:25.138Z,74.69
2023-03-12T15:34:59.092Z,75.20
2023-03-12T15:37:33.102Z,75.96
2023-03-12T15:40:06.971Z,76.86
2023-03-12T15:42:41.949Z,75.82
2023-03-12T15:45:21.620Z,74.95
2023-03-12T15:47:54.829Z,75.98
2023-03-12T15:50:25.301Z,76.80
2023-03-12T15:53:02.172Z,76.28
2023-03-12T15:55:32.047Z,78.37
2023-03-12T15:58:01.609Z,77.88
2023-03-12T16:00:32.981Z,78.19
2023-03-12T16:03:04.771Z,78.47
2023-03-12T16:05:35.686Z,78.72
2023-03-12T16:08:13.399Z,80.10
2023-03-12T16:10:42.054Z,79.74
2023-03-12T16:13:16.129Z,80.04
2023-03-12T16:15:47.815Z,80.57
2023-03-12T16:18:17.900Z,80.37
2023-03-12T16:20:46.847Z,81.17
2023-03-12T16:23:17.951Z,81.18
2023-03-12T16:25:49.427Z,80.83
2023-03-12T16:28:20.734Z,80.92
2023-03-12T16:30:50.942Z,81.63
2023-03-12T16:33:21.707Z,81.43
2023-03-12T16:35:51.463Z,82.37
2023-03-12T16:38:19.895Z,82.57
2023-03-12T16:40:50.263Z,82.53
2023-03-12T16:43:21.726Z,82.82
2023-03-12T16:45:54.219Z,82.41
2023-03-12T16:48:24.687Z,82.31
2023-03-12T16:50:55.887Z,82.24
2023-03-12T16:53:25.176Z,81.87
2023-03-12T16:55:56.727Z,82.95
2023-03-12T16:58:27.273Z,83.80
2023-03-12T17:00:58.890Z,83.74
2023-03-12T17:03:35.647Z,84.28
2023-03-12T17:06:06.665Z,84.44
2023-03-12T17:08:36.242Z,85.58
2023-03-12T17:11:15.732Z,86.10
2023-03-12T17:13:45.846Z,86.77
2023-03-12T17:16:16.185Z,87.22
2023-03-12T17:18:45.100Z,87.93
2023-03-12T17:21:14.861Z,88.48
2023-03-12T17:23:44.108Z,89.28
2023-03-12T17:26:12.569Z,90.07
2023-03-12T17:28:41.590Z,90.80
2023-03-12T17:31:11.201Z,91.68
2023-03-12T17:33:43.180Z,92.03
2023-03-12T17:36:11.512Z,91.05
2023-03-12T17:38:40.183Z,93.34
2023-03-12T17:41:25.437Z,93.72
2023-03-12T17:43:55.489Z,94.33
2023-03-12T17:46:24.128Z,94.27
2023-03-12T17:48:54.680Z,94.70
2023-03-12T17:51:23.619Z,95.14
2023-03-12T17:53:52.295Z,95.10
2023-03-12T17:56:21.203Z,96.00
2023-03-12T17:58:50.610Z,95.48
2023-03-12T18:01:19.429Z,95.46
2023-03-12T18:03:48.055Z,96.03
2023-03-12T18:06:19.853Z,96.18
2023-03-12T18:08:49.000Z,96.67
2023-03-12T18:11:19.498Z,97.25
2023-03-12T18:13:49.398Z,96.76
2023-03-12T18:16:18.626Z,96.06
2023-03-12T18:18:47.185Z,96.13
2023-03-12T18:21:15.617Z,96.08
2023-03-12T18:23:46.234Z,96.37
2023-03-12T18:26:14.831Z,95.88
2023-03-12T18:28:43.812Z,96.02
2023-03-12T18:31:13.150Z,96.42
2023-03-12T18:33:42.044Z,96.90
2023-03-12T18:36:10.956Z,96.75
2023-03-12T18:38:39.647Z,97.19
2023-03-12T18:41:12.495Z,97.35
2023-03-12T18:43:41.414Z,97.82
2023-03-12T18:46:11.531Z,98.42
2023-03-12T18:48:42.925Z,98.04
2023-03-12T18:51:12.630Z,98.81
2023-03-12T18:53:41.186Z,98.77
2023-03-12T18:56:11.214Z,99.33
2023-03-12T18:58:39.848Z,99.30
2023-03-12T19:01:08.685Z,99.22
2023-03-12T19:03:37.507Z,98.83
2023-03-12T19:06:08.820Z,98.95
2023-03-12T19:08:38.661Z,98.45
2023-03-12T19:11:13.906Z,98.17
2023-03-12T19:13:42.760Z,98.57
2023-03-12T19:16:16.462Z,98.30
2023-03-12T19:18:45.504Z,98.88
2023-03-12T19:21:14.128Z,98.88
2023-03-12T19:23:42.695Z,99.41
2023-03-12T19:26:12.869Z,99.48
2023-03-12T19:28:42.298Z,99.80
2023-03-12T19:31:15.202Z,99.90
2023-03-12T19:33:45.028Z,100.00
2023-03-12T19:36:13.819Z,100.00
2023-03-12T19:38:42.537Z,100.00
2023-03-12T19:41:12.913Z,100.00
2023-03-12T19:43:41.631Z,100.00
2023-03-12T19:46:10.655Z,100.00
2023-03-12T19:48:39.124Z,100.00
2023-03-12T19:51:08.846Z,100.00
2023-03-12T19:53:38.181Z,100.00
2023-03-12T19:56:07.857Z,100.00
2023-03-12T19:58:38.026Z,100.00
2023-03-12T20:01:06.668Z,100.00
2023-03-12T20:03:35.269Z,100.00
2023-03-12T20:06:04.424Z,100.00
2023-03-12T20:08:32.975Z,100.00
2023-03-12T20:11:05.323Z,100.00
2023-03-12T20:13:33.823Z,100.00
2023-03-12T20:16:05.186Z,100.00
2023-03-12T20:18:33.699Z,100.00
2023-03-12T20:21:02.294Z,100.00
2023-03-12T20:23:31.445Z,100.00
2023-03-12T20:25:59.893Z,100.00
2023-03-12T20:28:28.457Z,100.00
2023-03-12T20:30:56.938Z,100.00
2023-03-12T20:33:27.306Z,100.00
2023-03-12T20:35:56.241Z,100.00
2023-03-12T20:38:24.991Z,100.00
2023-03-12T20:40:53.615Z,100.00
2023-03-12T20:43:21.975Z,100.00
2023-03-12T20:45:50.742Z,100.00
2023-03-12T20:48:19.927Z,100.00
2023-03-12T20:50:50.626Z,100.00
2023-03-12T20:53:19.068Z,100.00
2023-03-12T20:55:47.831Z,100.00
2023-03-12T20:58:16.187Z,100.00
2023-03-12T21:00:44.834Z,100.00
2023-03-12T21:03:14.339Z,100.00
2023-03-12T21:05:43.166Z,100.00
2023-03-12T21:08:12.937Z,100.00
2023-03-12T21:10:41.982Z,100.00
2023-03-12T21:13:10.574Z,100.00
2023-03-12T21:15:39.067Z,100.00
2023-03-12T21:18:07.699Z,100.00
2023-03-12T21:20:38.555Z,100.00
2023-03-12T21:23:07.798Z,100.00
2023-03-12T21:25:38.908Z,100.00
2023-03-12T21:28:09.601Z,100.00
2023-03-12T21:30:38.969Z,100.00
2023-03-12T21:33:08.611Z,100.00
2023-03-12T21:35:37.088Z,100.00
2023-03-12T21:38:05.370Z,100.00
2023-03-12T21:40:33.882Z,100.00
2023-03-12T21:43:04.398Z,100.00
2023-03-12T21:45:33.061Z,100.00
2023-03-12T21:48:01.846Z,100.00
2023-03-12T21:50:30.667Z,100.00
2023-03-12T21:52:59.102Z,100.00
2023-03-12T21:55:27.606Z,100.00
2023-03-12T21:57:57.944Z,100.00
2023-03-12T22:00:28.061Z,100.00
2023-03-12T22:02:56.630Z,100.00
2023-03-12T22:05:25.590Z,100.00
2023-03-12T22:07:54.229Z,100.00
2023-03-12T22:10:23.517Z,100.00
2023-03-12T22:12:52.330Z,100.00
2023-03-12T22:15:20.976Z,100.00
2023-03-12T22:17:51.232Z,100.00
2023-03-12T22:20:21.273Z,100.00
2023-03-12T22:22:49.706Z,100.00
2023-03-12T22:25:18.813Z,100.00
2023-03-12T22:27:47.587Z,100.00
2023-03-12T22:30:17.796Z,100.00
2023-03-12T22:32:46.267Z,100.00
2023-03-12T22:35:16.804Z,100.00
2023-03-12T22:37:46.289Z,100.00
2023-03-12T22:40:15.912Z,100.00
2023-03-12T22:42:50.880Z,100.00
2023-03-12T22:45:20.251Z,100.00
2023-03-12T22:47:54.495Z,100.00
2023-03-12T22:50:24.704Z,100.00
2023-03-12T22:52:53.497Z,100.00
2023-03-12T22:55:22.670Z,100.00
2023-03-12T22:57:51.534Z,100.00
2023-03-12T23:00:23.408Z,100.00
2023-03-12T23:02:53.838Z,100.00
2023-03-12T23:05:22.522Z,100.00
2023-03-12T23:07:52.604Z,100.00
2023-03-12T23:10:21.320Z,100.00
2023-03-12T23:12:49.727Z,100.00
2023-03-12T23:15:20.976Z,100.00
2023-03-12T23:17:50.273Z,100.00
2023-03-12T23:20:19.193Z,100.00
2023-03-12T23:22:47.862Z,100.00
2023-03-12T23:25:18.744Z,100.00
2023-03-12T23:27:47.033Z,100.00
2023-03-12T23:30:16.433Z,100.00
2023-03-12T23:32:45.538Z,100.00
2023-03-12T23:35:14.318Z,100.00
2023-03-12T23:37:43.572Z,100.00
2023-03-12T23:40:13.033Z,100.00
2023-03-12T23:42:43.014Z,100.00
2023-03-12T23:45:13.265Z,100.00
2023-03-12T23:47:41.832Z,100.00
2023-03-12T23:50:11.848Z,100.00
2023-03-12T23:52:40.751Z,100.00
2023-03-12T23:55:10.014Z,100.00
2023-03-12T23:57:38.485Z,100.00
